createdAt,value
2018-10-06T00:00:19.177Z,8.50
2018-10-06T00:02:47.332Z,8.50
2018-10-06T00:05:15.656Z,8.40
2018-10-06T00:07:43.797Z,8.50
2018-10-06T00:10:11.952Z,8.40
2018-10-06T00:12:40.050Z,8.40
2018-10-06T00:15:08.406Z,8.40
2018-10-06T00:17:36.491Z,8.40
2018-10-06T00:20:04.777Z,8.40
2018-10-06T00:22:32.857Z,8.40
2018-10-06T00:25:00.999Z,8.30
2018-10-06T00:27:29.157Z,8.30
2018-10-06T00:29:57.763Z,8.20
2018-10-06T00:32:26.517Z,8.10
2018-10-06T00:34:54.711Z,8.10
2018-10-06T00:37:22.911Z,8.10
2018-10-06T00:39:51.077Z,8.10
2018-10-06T00:42:19.130Z,8.10
2018-10-06T00:44:47.389Z,8.10
2018-10-06T00:47:15.475Z,8.10
2018-10-06T00:49:43.649Z,8.10
2018-10-06T00:52:11.715Z,8.00
2018-10-06T00:54:39.783Z,8.00
2018-10-06T00:57:07.885Z,8.00
2018-10-06T00:59:36.035Z,7.60
2018-10-06T01:02:05.041Z,7.90
2018-10-06T01:04:33.335Z,7.90
2018-10-06T01:07:01.525Z,7.90
2018-10-06T01:09:29.666Z,7.90
2018-10-06T01:11:57.760Z,7.90
2018-10-06T01:14:25.823Z,7.80
2018-10-06T01:16:53.980Z,7.80
2018-10-06T01:19:22.086Z,7.80
2018-10-06T01:21:50.212Z,7.80
2018-10-06T01:24:18.336Z,7.80
2018-10-06T01:26:46.492Z,7.70
2018-10-06T01:29:14.596Z,7.60
2018-10-06T01:31:42.802Z,7.60
2018-10-06T01:34:10.892Z,7.70
2018-10-06T01:36:39.029Z,7.50
2018-10-06T01:39:07.463Z,7.60
2018-10-06T01:41:35.490Z,7.60
2018-10-06T01:44:03.644Z,7.60
2018-10-06T01:46:31.703Z,7.60
2018-10-06T01:48:59.999Z,7.60
2018-10-06T01:51:28.223Z,7.60
2018-10-06T01:53:56.278Z,7.60
2018-10-06T01:56:24.366Z,7.50
2018-10-06T01:58:52.485Z,7.40
2018-10-06T02:01:20.501Z,7.50
2018-10-06T02:03:48.759Z,7.50
2018-10-06T02:06:17.126Z,7.40
2018-10-06T02:08:45.343Z,7.40
2018-10-06T02:11:13.409Z,7.40
2018-10-06T02:13:42.161Z,7.50
2018-10-06T02:16:10.279Z,7.40
2018-10-06T02:18:38.373Z,7.40
2018-10-06T02:21:06.577Z,7.50
2018-10-06T02:23:34.812Z,7.40
2018-10-06T02:26:02.959Z,7.50
2018-10-06T02:28:31.149Z,7.40
2018-10-06T02:30:59.261Z,7.40
2018-10-06T02:33:27.325Z,7.30
2018-10-06T02:35:55.648Z,7.30
2018-10-06T02:38:23.790Z,7.30
2018-10-06T02:40:52.061Z,7.20
2018-10-06T02:43:20.897Z,7.20
2018-10-06T02:45:48.997Z,7.20
2018-10-06T02:48:17.366Z,7.10
2018-10-06T02:50:45.508Z,7.10
2018-10-06T02:53:13.512Z,7.10
2018-10-06T02:55:41.753Z,7.10
2018-10-06T02:58:09.953Z,7.10
2018-10-06T03:00:38.320Z,7.10
2018-10-06T03:03:06.494Z,7.10
2018-10-06T03:05:34.668Z,7.10
2018-10-06T03:08:02.696Z,6.70
2018-10-06T03:10:30.819Z,6.90
2018-10-06T03:12:58.937Z,7.10
2018-10-06T03:15:27.191Z,7.00
2018-10-06T03:17:55.383Z,7.10
2018-10-06T03:20:23.603Z,7.10
2018-10-06T03:22:51.683Z,6.70
2018-10-06T03:25:19.852Z,7.10
2018-10-06T03:27:48.142Z,7.10
2018-10-06T03:30:16.367Z,7.10
2018-10-06T03:32:44.620Z,7.10
2018-10-06T03:35:12.750Z,7.00
2018-10-06T03:37:40.830Z,7.00
2018-10-06T03:40:09.085Z,7.00
2018-10-06T03:42:37.110Z,7.00
2018-10-06T03:45:05.330Z,6.90
2018-10-06T03:47:33.419Z,6.90
2018-10-06T03:50:01.470Z,6.90
2018-10-06T03:52:29.548Z,6.90
2018-10-06T03:54:57.753Z,6.90
2018-10-06T03:57:25.814Z,6.80
2018-10-06T03:59:54.006Z,6.80
2018-10-06T04:02:22.240Z,6.80
2018-10-06T04:04:50.438Z,6.70
2018-10-06T04:07:18.457Z,6.70
2018-10-06T04:09:46.588Z,6.70
2018-10-06T04:12:14.673Z,6.60
2018-10-06T04:14:42.809Z,6.50
2018-10-06T04:17:10.879Z,6.50
2018-10-06T04:19:38.889Z,6.40
2018-10-06T04:22:07.053Z,6.40
2018-10-06T04:24:35.139Z,6.40
2018-10-06T04:27:03.260Z,6.40
2018-10-06T04:29:31.214Z,6.40
2018-10-06T04:31:59.241Z,6.40
2018-10-06T04:34:27.670Z,6.50
2018-10-06T04:36:55.761Z,6.50
2018-10-06T04:39:23.872Z,6.50
2018-10-06T04:41:51.942Z,6.40
2018-10-06T04:44:20.041Z,6.40
2018-10-06T04:46:48.225Z,6.30
2018-10-06T04:49:16.387Z,7.00
2018-10-06T04:51:44.502Z,6.30
2018-10-06T04:54:12.641Z,6.30
2018-10-06T04:56:40.741Z,6.30
2018-10-06T04:59:09.035Z,6.30
2018-10-06T05:01:37.193Z,6.30
2018-10-06T05:04:05.424Z,6.30
2018-10-06T05:06:33.784Z,6.30
2018-10-06T05:09:01.899Z,6.30
2018-10-06T05:11:30.141Z,6.30
2018-10-06T05:13:58.218Z,6.30
2018-10-06T05:16:26.415Z,4.70
2018-10-06T05:18:54.717Z,6.40
2018-10-06T05:21:22.909Z,6.40
2018-10-06T05:23:51.514Z,6.50
2018-10-06T05:26:19.638Z,6.50
2018-10-06T05:28:47.925Z,6.50
2018-10-06T05:31:16.153Z,6.50
2018-10-06T05:33:44.298Z,6.50
2018-10-06T05:36:12.371Z,6.50
2018-10-06T05:38:40.507Z,6.50
2018-10-06T05:41:08.721Z,6.50
2018-10-06T05:43:37.767Z,6.60
2018-10-06T05:46:06.158Z,6.40
2018-10-06T05:48:34.380Z,7.00
2018-10-06T05:51:02.515Z,6.40
2018-10-06T05:53:30.732Z,6.50
2018-10-06T05:55:58.909Z,6.50
2018-10-06T05:58:27.126Z,7.10
2018-10-06T06:00:55.318Z,6.00
2018-10-06T06:03:23.431Z,6.60
2018-10-06T06:05:51.718Z,6.70
2018-10-06T06:08:20.191Z,6.80
2018-10-06T06:10:48.306Z,6.90
2018-10-06T06:13:16.381Z,7.00
2018-10-06T06:15:44.509Z,7.10
2018-10-06T06:18:12.500Z,7.20
2018-10-06T06:20:40.625Z,7.40
2018-10-06T06:23:09.240Z,7.00
2018-10-06T06:25:37.491Z,7.60
2018-10-06T06:28:05.801Z,7.70
2018-10-06T06:30:34.028Z,7.90
2018-10-06T06:33:02.234Z,8.00
2018-10-06T06:35:30.506Z,8.10
2018-10-06T06:37:58.738Z,8.20
2018-10-06T06:40:26.985Z,8.30
2018-10-06T06:42:55.238Z,8.40
2018-10-06T06:45:23.337Z,8.50
2018-10-06T06:47:51.685Z,8.60
2018-10-06T06:50:19.948Z,8.60
2018-10-06T06:52:48.218Z,8.70
2018-10-06T06:55:16.303Z,8.90
2018-10-06T06:57:44.405Z,9.10
2018-10-06T07:00:12.567Z,9.30
2018-10-06T07:02:41.344Z,9.30
2018-10-06T07:05:09.450Z,9.50
2018-10-06T07:07:38.941Z,9.60
2018-10-06T07:10:07.064Z,9.80
2018-10-06T07:12:35.413Z,10.10
2018-10-06T07:15:03.620Z,11.50
2018-10-06T07:17:31.751Z,13.00
2018-10-06T07:19:59.948Z,14.40
2018-10-06T07:22:28.153Z,15.90
2018-10-06T07:24:56.387Z,17.00
2018-10-06T07:27:24.623Z,17.30
2018-10-06T07:29:52.817Z,16.50
2018-10-06T07:32:20.928Z,16.80
2018-10-06T07:34:49.040Z,18.00
2018-10-06T07:37:17.736Z,18.90
2018-10-06T07:39:45.809Z,19.90
2018-10-06T07:42:14.062Z,20.90
2018-10-06T07:44:42.274Z,21.20
2018-10-06T07:47:10.494Z,21.80
2018-10-06T07:49:38.630Z,22.20
2018-10-06T07:52:06.800Z,22.30
2018-10-06T07:54:34.969Z,22.50
2018-10-06T07:57:03.190Z,22.00
2018-10-06T07:59:31.255Z,21.00
2018-10-06T08:01:59.465Z,21.10
2018-10-06T08:04:27.611Z,21.30
2018-10-06T08:06:55.810Z,21.10
2018-10-06T08:09:24.298Z,21.10
2018-10-06T08:11:52.410Z,21.50
2018-10-06T08:14:20.539Z,21.80
2018-10-06T08:16:48.796Z,21.50
2018-10-06T08:19:16.994Z,21.50
2018-10-06T08:21:45.144Z,21.40
2018-10-06T08:24:13.253Z,21.70
2018-10-06T08:26:41.525Z,21.10
2018-10-06T08:29:09.697Z,21.20
2018-10-06T08:31:37.894Z,21.00
2018-10-06T08:34:06.202Z,21.40
2018-10-06T08:36:35.098Z,22.30
2018-10-06T08:39:19.465Z,23.00
2018-10-06T08:41:47.560Z,22.80
2018-10-06T08:44:16.362Z,22.20
2018-10-06T08:46:49.762Z,21.60
2018-10-06T08:49:17.807Z,21.40
2018-10-06T08:51:46.045Z,21.10
2018-10-06T08:54:14.121Z,20.70
2018-10-06T08:56:42.190Z,20.10
2018-10-06T08:59:10.287Z,19.50
2018-10-06T09:01:38.479Z,18.90
2018-10-06T09:04:06.651Z,18.80
2018-10-06T09:06:34.797Z,18.70
2018-10-06T09:09:04.318Z,18.40
2018-10-06T09:11:32.362Z,18.20
2018-10-06T09:14:01.258Z,17.70
2018-10-06T09:16:29.389Z,17.70
2018-10-06T09:18:57.469Z,17.60
2018-10-06T09:21:25.927Z,17.50
2018-10-06T09:23:54.067Z,17.30
2018-10-06T09:26:22.201Z,17.30
2018-10-06T09:28:50.435Z,17.50
2018-10-06T09:31:18.518Z,17.30
2018-10-06T09:33:46.663Z,17.30
2018-10-06T09:36:14.863Z,17.30
2018-10-06T09:38:42.930Z,17.20
2018-10-06T09:41:11.014Z,17.30
2018-10-06T09:43:39.087Z,17.20
2018-10-06T09:46:07.330Z,17.20
2018-10-06T09:48:35.509Z,17.20
2018-10-06T09:51:03.571Z,17.20
2018-10-06T09:53:31.748Z,17.30
2018-10-06T09:55:59.840Z,17.40
2018-10-06T09:58:28.718Z,17.60
2018-10-06T10:01:02.364Z,17.80
2018-10-06T10:03:36.145Z,17.90
2018-10-06T10:06:04.308Z,18.10
2018-10-06T10:08:32.313Z,18.00
2018-10-06T10:11:00.413Z,17.60
2018-10-06T10:13:28.583Z,17.90
2018-10-06T10:15:56.709Z,18.00
2018-10-06T10:18:24.967Z,18.30
2018-10-06T10:20:52.967Z,18.30
2018-10-06T10:23:21.800Z,18.40
2018-10-06T10:25:50.679Z,18.80
2018-10-06T10:28:18.872Z,19.30
2018-10-06T10:30:47.085Z,19.70
2018-10-06T10:33:15.153Z,20.40
2018-10-06T10:35:43.180Z,21.30
2018-10-06T10:38:11.339Z,23.30
2018-10-06T10:40:39.383Z,25.20
2018-10-06T10:43:07.451Z,26.50
2018-10-06T10:45:35.529Z,26.90
2018-10-06T10:48:03.659Z,27.90
2018-10-06T10:50:31.776Z,28.30
2018-10-06T10:52:59.964Z,27.70
2018-10-06T10:55:28.125Z,27.90
2018-10-06T10:57:56.261Z,28.20
2018-10-06T11:00:24.445Z,27.90
2018-10-06T11:02:52.595Z,27.80
2018-10-06T11:05:20.682Z,27.70
2018-10-06T11:07:48.852Z,27.30
2018-10-06T11:10:16.918Z,27.10
2018-10-06T11:12:45.070Z,26.50
2018-10-06T11:15:13.300Z,26.30
2018-10-06T11:17:41.546Z,25.80
2018-10-06T11:20:09.820Z,25.90
2018-10-06T11:22:37.998Z,25.90
2018-10-06T11:25:06.099Z,26.70
2018-10-06T11:27:34.528Z,27.30
2018-10-06T11:30:02.764Z,27.20
2018-10-06T11:32:31.069Z,27.10
2018-10-06T11:34:59.327Z,27.80
2018-10-06T11:37:28.315Z,28.00
2018-10-06T11:39:56.274Z,28.70
2018-10-06T11:42:24.502Z,29.00
2018-10-06T11:44:52.525Z,28.50
2018-10-06T11:47:20.708Z,28.70
2018-10-06T11:49:48.977Z,29.00
2018-10-06T11:52:17.033Z,28.40
2018-10-06T11:54:45.100Z,28.10
2018-10-06T11:57:13.891Z,27.70
2018-10-06T11:59:42.117Z,27.00
2018-10-06T12:02:10.189Z,27.00
2018-10-06T12:04:38.360Z,27.20
2018-10-06T12:07:06.486Z,27.30
2018-10-06T12:09:34.701Z,29.20
2018-10-06T12:12:02.774Z,30.40
2018-10-06T12:14:30.853Z,31.40
2018-10-06T12:16:59.372Z,31.70
2018-10-06T12:19:28.439Z,32.70
2018-10-06T12:21:56.625Z,32.60
2018-10-06T12:24:24.812Z,31.70
2018-10-06T12:26:52.810Z,31.40
2018-10-06T12:29:20.885Z,30.90
2018-10-06T12:31:49.030Z,31.60
2018-10-06T12:34:17.132Z,32.60
2018-10-06T12:36:45.294Z,33.20
2018-10-06T12:39:13.396Z,33.60
2018-10-06T12:41:41.484Z,33.60
2018-10-06T12:44:09.599Z,33.70
2018-10-06T12:46:37.777Z,33.60
2018-10-06T12:49:06.113Z,34.10
2018-10-06T12:51:34.357Z,34.40
2018-10-06T12:54:02.454Z,35.10
2018-10-06T12:56:30.582Z,35.40
2018-10-06T13:01:34.592Z,34.80
2018-10-06T13:04:02.762Z,34.10
2018-10-06T13:06:31.023Z,33.10
2018-10-06T13:08:59.205Z,32.20
2018-10-06T13:11:27.359Z,31.70
2018-10-06T13:13:55.504Z,31.30
2018-10-06T13:16:23.829Z,30.70
2018-10-06T13:18:52.131Z,30.10
2018-10-06T13:21:20.325Z,29.90
2018-10-06T13:23:49.141Z,29.60
2018-10-06T13:26:17.423Z,29.20
2018-10-06T13:28:45.652Z,29.40
2018-10-06T13:31:13.833Z,29.60
2018-10-06T13:33:41.959Z,29.90
2018-10-06T13:36:10.170Z,30.20
2018-10-06T13:38:38.405Z,30.70
2018-10-06T13:41:06.619Z,31.30
2018-10-06T13:43:34.915Z,31.60
2018-10-06T13:46:03.061Z,31.70
2018-10-06T13:48:31.442Z,31.00
2018-10-06T13:50:59.743Z,30.20
2018-10-06T13:53:27.923Z,29.90
2018-10-06T13:55:56.193Z,29.60
2018-10-06T13:58:24.507Z,29.70
2018-10-06T14:00:52.789Z,29.60
2018-10-06T14:03:21.065Z,29.80
2018-10-06T14:05:49.211Z,29.70
2018-10-06T14:08:17.365Z,29.70
2018-10-06T14:10:45.579Z,29.50
2018-10-06T14:13:13.810Z,29.00
2018-10-06T14:15:41.992Z,28.90
2018-10-06T14:18:10.213Z,28.60
2018-10-06T14:20:38.480Z,28.90
2018-10-06T14:23:06.753Z,29.10
2018-10-06T14:25:34.933Z,28.90
2018-10-06T14:28:03.072Z,28.60
2018-10-06T14:30:31.262Z,28.60
2018-10-06T14:32:59.389Z,28.30
2018-10-06T14:35:27.771Z,27.90
2018-10-06T14:37:55.868Z,27.50
2018-10-06T14:40:24.096Z,27.30
2018-10-06T14:42:52.418Z,27.10
2018-10-06T14:45:20.612Z,27.00
2018-10-06T14:47:48.870Z,26.90
2018-10-06T14:50:17.199Z,26.80
2018-10-06T14:52:45.469Z,26.60
2018-10-06T14:55:13.659Z,26.50
2018-10-06T14:57:41.800Z,26.50
2018-10-06T15:00:09.973Z,26.20
2018-10-06T15:02:38.082Z,26.10
2018-10-06T15:05:06.467Z,26.10
2018-10-06T15:07:35.026Z,25.90
2018-10-06T15:10:03.258Z,25.70
2018-10-06T15:12:31.580Z,25.50
2018-10-06T15:14:59.962Z,25.20
2018-10-06T15:17:28.062Z,25.00
2018-10-06T15:19:56.274Z,25.00
2018-10-06T15:22:24.550Z,24.90
2018-10-06T15:24:52.732Z,24.50
2018-10-06T15:27:20.809Z,24.40
2018-10-06T15:29:49.130Z,24.20
2018-10-06T15:32:17.373Z,24.10
2018-10-06T15:34:45.706Z,24.00
2018-10-06T15:37:13.862Z,23.80
2018-10-06T15:39:42.140Z,23.30
2018-10-06T15:42:10.286Z,23.50
2018-10-06T15:44:38.454Z,23.40
2018-10-06T15:47:06.553Z,23.20
2018-10-06T15:49:34.605Z,23.00
2018-10-06T15:52:02.800Z,22.70
2018-10-06T15:54:30.937Z,22.60
2018-10-06T15:56:58.988Z,22.50
2018-10-06T15:59:27.622Z,22.50
2018-10-06T16:01:55.791Z,22.40
2018-10-06T16:04:23.975Z,22.20
2018-10-06T16:06:52.094Z,22.20
2018-10-06T16:09:20.298Z,22.10
2018-10-06T16:11:49.188Z,22.10
2018-10-06T16:14:17.392Z,22.00
2018-10-06T16:16:46.140Z,21.90
2018-10-06T16:19:14.466Z,21.70
2018-10-06T16:21:42.922Z,21.50
2018-10-06T16:24:10.954Z,21.40
2018-10-06T16:26:39.115Z,21.10
2018-10-06T16:29:07.454Z,21.00
2018-10-06T16:31:35.700Z,20.90
2018-10-06T16:34:03.890Z,20.70
2018-10-06T16:36:31.924Z,20.50
2018-10-06T16:39:00.581Z,20.40
2018-10-06T16:41:28.685Z,20.30
2018-10-06T16:43:56.950Z,20.10
2018-10-06T16:46:25.231Z,19.90
2018-10-06T16:48:53.328Z,19.80
2018-10-06T16:51:21.629Z,19.60
2018-10-06T16:53:49.863Z,19.40
2018-10-06T16:56:18.570Z,19.30
2018-10-06T16:58:46.787Z,19.20
2018-10-06T17:01:15.102Z,19.10
2018-10-06T17:03:43.294Z,18.90
2018-10-06T17:06:12.211Z,18.80
2018-10-06T17:08:40.378Z,18.70
2018-10-06T17:11:08.568Z,18.50
2018-10-06T17:13:36.701Z,17.90
2018-10-06T17:16:04.871Z,18.40
2018-10-06T17:18:32.993Z,18.30
2018-10-06T17:21:01.139Z,17.70
2018-10-06T17:23:29.917Z,18.10
2018-10-06T17:25:58.077Z,18.00
2018-10-06T17:28:26.245Z,17.90
2018-10-06T17:30:54.508Z,17.80
2018-10-06T17:33:22.674Z,17.80
2018-10-06T17:35:51.383Z,17.70
2018-10-06T17:38:19.573Z,17.60
2018-10-06T17:40:47.795Z,17.70
2018-10-06T17:43:15.957Z,17.70
2018-10-06T17:45:44.275Z,17.60
2018-10-06T17:48:12.656Z,17.60
2018-10-06T17:50:41.060Z,17.40
2018-10-06T17:53:09.163Z,17.40
2018-10-06T17:55:37.340Z,17.40
2018-10-06T17:58:05.658Z,17.30
2018-10-06T18:00:33.730Z,17.20
2018-10-06T18:03:02.079Z,17.10
2018-10-06T18:05:30.402Z,17.10
2018-10-06T18:07:58.542Z,17.00
2018-10-06T18:10:26.582Z,17.00
2018-10-06T18:12:54.866Z,17.00
2018-10-06T18:15:24.023Z,16.90
2018-10-06T18:17:52.284Z,16.90
2018-10-06T18:20:20.548Z,16.80
2018-10-06T18:22:48.677Z,16.80
2018-10-06T18:25:17.113Z,16.70
2018-10-06T18:27:45.612Z,16.70
2018-10-06T18:30:13.664Z,16.40
2018-10-06T18:32:41.844Z,16.70
2018-10-06T18:35:10.040Z,16.60
2018-10-06T18:37:38.161Z,16.60
2018-10-06T18:40:06.313Z,16.70
2018-10-06T18:42:34.409Z,16.70
2018-10-06T18:45:02.641Z,16.70
2018-10-06T18:47:30.938Z,16.60
2018-10-06T18:49:59.261Z,16.50
2018-10-06T18:52:27.481Z,16.40
2018-10-06T18:54:55.716Z,16.30
2018-10-06T18:57:23.926Z,16.30
2018-10-06T18:59:52.403Z,16.30
2018-10-06T19:02:20.954Z,16.20
2018-10-06T19:04:49.434Z,16.20
2018-10-06T19:07:18.013Z,16.20
2018-10-06T19:09:46.554Z,16.20
2018-10-06T19:12:15.004Z,16.20
2018-10-06T19:14:43.703Z,16.20
2018-10-06T19:17:12.105Z,16.10
2018-10-06T19:19:40.607Z,16.10
2018-10-06T19:22:09.094Z,16.00
2018-10-06T19:24:38.103Z,15.90
2018-10-06T19:27:06.611Z,16.00
2018-10-06T19:29:34.921Z,15.90
2018-10-06T19:32:03.387Z,15.80
2018-10-06T19:34:31.874Z,15.80
2018-10-06T19:37:00.323Z,15.80
2018-10-06T19:39:28.853Z,15.80
2018-10-06T19:41:57.417Z,15.80
2018-10-06T19:44:25.824Z,15.80
2018-10-06T19:46:54.358Z,15.70
2018-10-06T19:49:22.850Z,15.60
2018-10-06T19:51:51.219Z,15.60
2018-10-06T19:54:19.841Z,15.60
2018-10-06T19:56:48.305Z,15.60
2018-10-06T19:59:16.921Z,15.50
2018-10-06T20:01:45.887Z,15.50
2018-10-06T20:04:14.400Z,15.40
2018-10-06T20:06:43.056Z,15.40
2018-10-06T20:09:12.063Z,15.50
2018-10-06T20:11:41.102Z,15.50
2018-10-06T20:14:09.570Z,15.60
2018-10-06T20:16:38.375Z,15.50
2018-10-06T20:19:06.950Z,15.50
2018-10-06T20:21:35.390Z,15.50
2018-10-06T20:24:03.842Z,15.40
2018-10-06T20:26:32.030Z,15.40
2018-10-06T20:29:00.094Z,15.40
2018-10-06T20:31:28.202Z,15.40
2018-10-06T20:33:56.321Z,15.40
2018-10-06T20:36:24.408Z,15.30
2018-10-06T20:38:52.564Z,15.20
2018-10-06T20:41:20.722Z,15.10
2018-10-06T20:43:48.774Z,15.00
2018-10-06T20:46:16.837Z,15.00
2018-10-06T20:48:44.978Z,14.90
2018-10-06T20:51:13.213Z,14.80
2018-10-06T20:53:41.505Z,14.70
2018-10-06T20:56:09.697Z,14.70
2018-10-06T20:58:39.226Z,14.60
2018-10-06T21:01:07.466Z,14.60
2018-10-06T21:03:35.722Z,14.50
2018-10-06T21:06:03.912Z,14.50
2018-10-06T21:08:32.067Z,14.40
2018-10-06T21:11:00.197Z,14.40
2018-10-06T21:13:28.327Z,14.30
2018-10-06T21:15:56.540Z,14.20
2018-10-06T21:18:24.821Z,14.20
2018-10-06T21:20:52.936Z,14.20
2018-10-06T21:23:21.126Z,14.10
2018-10-06T21:25:49.383Z,14.10
2018-10-06T21:28:17.591Z,13.60
2018-10-06T21:30:45.823Z,14.00
2018-10-06T21:33:14.077Z,14.00
2018-10-06T21:35:42.301Z,14.00
2018-10-06T21:38:11.125Z,13.90
2018-10-06T21:40:39.268Z,13.90
2018-10-06T21:43:07.536Z,13.90
2018-10-06T21:45:35.878Z,13.90
2018-10-06T21:48:04.899Z,13.80
2018-10-06T21:50:33.126Z,13.80
2018-10-06T21:53:01.248Z,13.70
2018-10-06T21:55:30.006Z,13.40
2018-10-06T21:57:58.325Z,13.60
2018-10-06T22:00:26.602Z,13.60
2018-10-06T22:02:54.689Z,13.60
2018-10-06T22:05:22.866Z,13.50
2018-10-06T22:07:51.079Z,13.40
2018-10-06T22:10:19.312Z,13.40
2018-10-06T22:12:47.441Z,13.40
2018-10-06T22:15:15.621Z,13.30
2018-10-06T22:17:43.687Z,13.30
2018-10-06T22:20:11.861Z,13.30
2018-10-06T22:22:39.979Z,13.30
2018-10-06T22:25:08.538Z,13.10
2018-10-06T22:27:36.538Z,13.30
2018-10-06T22:30:05.913Z,13.30
2018-10-06T22:32:34.049Z,13.30
2018-10-06T22:35:02.294Z,13.30
2018-10-06T22:37:30.740Z,13.30
2018-10-06T22:39:58.809Z,13.30
2018-10-06T22:42:26.877Z,13.30
2018-10-06T22:44:55.983Z,13.20
2018-10-06T22:47:24.280Z,13.10
2018-10-06T22:49:52.418Z,13.00
2018-10-06T22:52:20.514Z,13.00
2018-10-06T22:54:48.705Z,13.00
2018-10-06T22:57:16.855Z,13.00
2018-10-06T22:59:45.110Z,12.90
2018-10-06T23:02:13.359Z,12.80
2018-10-06T23:04:41.481Z,12.80
2018-10-06T23:07:09.670Z,12.70
2018-10-06T23:09:38.839Z,12.70
2018-10-06T23:12:06.980Z,12.60
2018-10-06T23:14:35.240Z,12.60
2018-10-06T23:17:03.450Z,12.60
2018-10-06T23:19:31.649Z,12.50
2018-10-06T23:21:59.786Z,12.40
2018-10-06T23:24:28.020Z,12.30
2018-10-06T23:26:56.297Z,12.30
2018-10-06T23:29:24.461Z,12.40
2018-10-06T23:31:52.697Z,12.30
2018-10-06T23:34:20.894Z,12.30
2018-10-06T23:36:49.249Z,12.40
2018-10-06T23:39:17.415Z,12.40
2018-10-06T23:41:45.704Z,12.40
2018-10-06T23:44:14.533Z,12.40
2018-10-06T23:46:42.730Z,12.40
2018-10-06T23:49:10.995Z,12.40
2018-10-06T23:51:39.195Z,12.30
2018-10-06T23:54:07.834Z,12.30
2018-10-06T23:56:35.943Z,12.20
2018-10-06T23:59:04.172Z,12.00
